Time,TemperatureF,DewpointF,PressureIn,WindDirection,WindDirectionDegrees,WindSpeedMPH,WindSpeedGustMPH,Humidity,HourlyPrecipIn,Conditions,Clouds,dailyrainin,SoftwareType,DateUTC
2013-05-15 00:01:00,57.6,40.1,29.98,ESE,105,3.0,4.0,52,0.00,,,0.00,vanprod-2.5-rc3,2013-05-15 06:01:00,
2013-05-15 00:06:00,57.7,39.7,29.98,ESE,108,3.0,4.0,51,0.00,,,0.00,vanprod-2.5-rc3,2013-05-15 06:06:00,
2013-05-15 00:11:00,58.0,40.0,29.98,ESE,111,3.0,3.0,51,0.00,,,0.00,vanprod-2.5-rc3,2013-05-15 06:11:00,
2013-05-15 00:16:00,58.1,40.1,29.98,ESE,106,2.0,4.0,51,0.00,,,0.00,vanprod-2.5-rc3,2013-05-15 06:16:00,
2013-05-15 00:21:00,57.8,39.8,29.98,East,86,3.0,4.0,51,0.00,,,0.00,vanprod-2.5-rc3,2013-05-15 06:21:00,
2013-05-15 00:26:00,57.4,39.4,29.98,ESE,105,2.0,3.0,51,0.00,,,0.00,vanprod-2.5-rc3,2013-05-15 06:26:00,
2013-05-15 00:31:00,57.4,39.4,29.98,ESE,115,0.0,0.0,51,0.00,,,0.00,vanprod-2.5-rc3,2013-05-15 06:31:00,
2013-05-15 00:36:00,57.5,39.5,29.98,ESE,105,0.0,0.0,51,0.00,,,0.00,vanprod-2.5-rc3,2013-05-15 06:36:00,
2013-05-15 00:41:00,57.5,39.5,29.98,ESE,103,5.0,7.0,51,0.00,,,0.00,vanprod-2.5-rc3,2013-05-15 06:41:00,
2013-05-15 00:46:00,57.8,39.8,29.98,East,97,4.0,5.0,51,0.00,,,0.00,vanprod-2.5-rc3,2013-05-15 06:46:00,
2013-05-15 00:51:00,57.9,39.9,29.98,East,92,3.0,4.0,51,0.00,,,0.00,vanprod-2.5-rc3,2013-05-15 06:51:00,
2013-05-15 00:56:00,58.0,40.0,29.98,ESE,107,4.0,5.0,51,0.00,,,0.00,vanprod-2.5-rc3,2013-05-15 06:56:00,
2013-05-15 01:01:00,58.1,40.1,29.99,ESE,111,4.0,5.0,51,0.00,,,0.00,vanprod-2.5-rc3,2013-05-15 07:01:00,
2013-05-15 01:06:00,58.3,39.8,29.99,ESE,121,5.0,6.0,50,0.00,,,0.00,vanprod-2.5-rc3,2013-05-15 07:06:00,
2013-05-15 01:11:00,58.7,40.1,29.99,ESE,110,5.0,6.0,50,0.00,,,0.00,vanprod-2.5-rc3,2013-05-15 07:11:00,
2013-05-15 01:16:00,59.0,39.9,29.99,ESE,120,6.0,6.0,49,0.00,,,0.00,vanprod-2.5-rc3,2013-05-15 07:16:00,
2013-05-15 01:21:00,59.0,39.9,29.99,ESE,119,4.0,5.0,49,0.00,,,0.00,vanprod-2.5-rc3,2013-05-15 07:21:00,
2013-05-15 01:26:00,59.5,40.3,29.99,ESE,113,5.0,6.0,49,0.00,,,0.00,vanprod-2.5-rc3,2013-05-15 07:26:00,
2013-05-15 01:31:00,59.7,40.0,29.98,ESE,118,4.0,6.0,48,0.00,,,0.00,vanprod-2.5-rc3,2013-05-15 07:31:00,
2013-05-15 01:36:00,59.8,40.1,29.98,ESE,119,3.0,6.0,48,0.00,,,0.00,vanprod-2.5-rc3,2013-05-15 07:36:00,
2013-05-15 01:41:00,59.7,40.0,29.98,SE,134,4.0,5.0,48,0.00,,,0.00,vanprod-2.5-rc3,2013-05-15 07:41:00,
2013-05-15 01:46:00,59.5,39.8,29.98,SE,134,2.0,0.0,48,0.00,,,0.00,vanprod-2.5-rc3,2013-05-15 07:46:00,
2013-05-15 01:51:00,59.3,40.2,29.99,SE,132,5.0,6.0,49,0.00,,,0.00,vanprod-2.5-rc3,2013-05-15 07:51:00,
2013-05-15 01:56:00,59.1,40.0,29.99,SE,128,0.0,0.0,49,0.00,,,0.00,vanprod-2.5-rc3,2013-05-15 07:56:00,
2013-05-15 02:01:00,59.0,40.4,29.98,SE,128,0.0,0.0,50,0.00,,,0.00,vanprod-2.5-rc3,2013-05-15 08:01:00,
2013-05-15 02:06:00,59.0,40.9,29.98,SE,128,0.0,0.0,51,0.00,,,0.00,vanprod-2.5-rc3,2013-05-15 08:06:00,
2013-05-15 02:11:00,58.5,39.4,29.99,SE,132,4.0,5.0,49,0.00,,,0.00,vanprod-2.5-rc3,2013-05-15 08:11:00,
2013-05-15 02:16:00,58.4,39.9,29.97,SE,131,4.0,5.0,50,0.00,,,0.00,vanprod-2.5-rc3,2013-05-15 08:16:00,
2013-05-15 02:21:00,58.5,39.4,29.99,ESE,121,2.0,3.0,49,0.00,,,0.00,vanprod-2.5-rc3,2013-05-15 08:21:00,
2013-05-15 02:26:00,58.6,39.5,29.98,SE,126,4.0,5.0,49,0.00,,,0.00,vanprod-2.5-rc3,2013-05-15 08:26:00,
2013-05-15 02:31:00,58.6,39.5,29.99,SE,132,1.0,0.0,49,0.00,,,0.00,vanprod-2.5-rc3,2013-05-15 08:31:00,
2013-05-15 02:36:00,58.4,39.9,29.99,NNW,338,0.0,0.0,50,0.00,,,0.00,vanprod-2.5-rc3,2013-05-15 08:36:00,
2013-05-15 02:41:00,57.5,39.5,29.97,NNE,26,4.0,5.0,51,0.00,,,0.00,vanprod-2.5-rc3,2013-05-15 08:41:00,
2013-05-15 02:46:00,56.7,39.3,29.97,NE,45,0.0,0.0,52,0.00,,,0.00,vanprod-2.5-rc3,2013-05-15 08:46:00,
2013-05-15 02:51:00,56.4,39.5,29.98,NE,49,0.0,0.0,53,0.00,,,0.00,vanprod-2.5-rc3,2013-05-15 08:51:00,
2013-05-15 02:56:00,55.9,38.5,29.98,East,88,0.0,0.0,52,0.00,,,0.00,vanprod-2.5-rc3,2013-05-15 08:56:00,
2013-05-15 03:01:00,55.7,38.8,29.99,East,91,0.0,0.0,53,0.00,,,0.00,vanprod-2.5-rc3,2013-05-15 09:01:00,
2013-05-15 03:06:00,55.3,39.0,29.98,East,91,0.0,0.0,54,0.00,,,0.00,vanprod-2.5-rc3,2013-05-15 09:06:00,
2013-05-15 03:11:00,54.9,39.1,29.98,East,98,0.0,0.0,55,0.00,,,0.00,vanprod-2.5-rc3,2013-05-15 09:11:00,
2013-05-15 03:16:00,54.8,39.0,29.98,ENE,60,2.0,3.0,55,0.00,,,0.00,vanprod-2.5-rc3,2013-05-15 09:16:00,
2013-05-15 03:21:00,54.8,39.4,29.98,East,85,3.0,3.0,56,0.00,,,0.00,vanprod-2.5-rc3,2013-05-15 09:21:00,
2013-05-15 03:26:00,54.7,39.3,29.98,ESE,111,2.0,5.0,56,0.00,,,0.00,vanprod-2.5-rc3,2013-05-15 09:26:00,
2013-05-15 03:31:00,55.0,39.1,29.98,East,92,3.0,3.0,55,0.00,,,0.00,vanprod-2.5-rc3,2013-05-15 09:31:00,
2013-05-15 03:36:00,55.5,39.6,29.99,East,92,0.0,0.0,55,0.00,,,0.00,vanprod-2.5-rc3,2013-05-15 09:36:00,
2013-05-15 03:41:00,55.7,39.3,29.99,East,92,0.0,0.0,54,0.00,,,0.00,vanprod-2.5-rc3,2013-05-15 09:41:00,
2013-05-15 03:46:00,55.6,39.2,29.99,East,92,0.0,0.0,54,0.00,,,0.00,vanprod-2.5-rc3,2013-05-15 09:46:00,
2013-05-15 03:51:00,55.4,40.0,29.97,East,92,0.0,0.0,56,0.00,,,0.00,vanprod-2.5-rc3,2013-05-15 09:51:00,
2013-05-15 03:56:00,54.5,40.0,29.97,NE,43,1.0,5.0,58,0.00,,,0.00,vanprod-2.5-rc3,2013-05-15 09:56:00,
2013-05-15 04:01:00,54.1,40.1,29.97,NE,56,4.0,5.0,59,0.00,,,0.00,vanprod-2.5-rc3,2013-05-15 10:01:00,
2013-05-15 04:06:00,54.0,40.0,29.97,NE,56,2.0,0.0,59,0.00,,,0.00,vanprod-2.5-rc3,2013-05-15 10:06:00,
2013-05-15 04:11:00,53.8,39.8,29.97,ENE,67,3.0,3.0,59,0.00,,,0.00,vanprod-2.5-rc3,2013-05-15 10:11:00,
2013-05-15 04:16:00,53.5,40.0,29.96,ENE,76,4.0,4.0,60,0.00,,,0.00,vanprod-2.5-rc3,2013-05-15 10:16:00,
2013-05-15 04:21:00,53.1,40.0,29.96,East,82,4.0,4.0,61,0.00,,,0.00,vanprod-2.5-rc3,2013-05-15 10:21:00,
2013-05-15 04:26:00,52.8,39.7,29.97,East,85,2.0,3.0,61,0.00,,,0.00,vanprod-2.5-rc3,2013-05-15 10:26:00,
2013-05-15 04:31:00,52.5,39.9,29.97,East,98,0.0,2.0,62,0.00,,,0.00,vanprod-2.5-rc3,2013-05-15 10:31:00,
2013-05-15 04:36:00,52.3,39.7,29.98,ESE,106,3.0,3.0,62,0.00,,,0.00,vanprod-2.5-rc3,2013-05-15 10:36:00,
2013-05-15 04:41:00,52.4,39.8,29.98,ESE,113,3.0,3.0,62,0.00,,,0.00,vanprod-2.5-rc3,2013-05-15 10:41:00,
2013-05-15 04:46:00,52.6,40.0,29.97,ESE,111,4.0,5.0,62,0.00,,,0.00,vanprod-2.5-rc3,2013-05-15 10:46:00,
2013-05-15 04:51:00,52.9,39.8,29.97,ESE,111,3.0,5.0,61,0.00,,,0.00,vanprod-2.5-rc3,2013-05-15 10:51:00,
2013-05-15 04:56:00,53.1,40.0,29.97,ESE,109,3.0,5.0,61,0.00,,,0.00,vanprod-2.5-rc3,2013-05-15 10:56:00,
2013-05-15 05:01:00,53.2,40.1,29.97,East,99,4.0,5.0,61,0.00,,,0.00,vanprod-2.5-rc3,2013-05-15 11:01:00,
2013-05-15 05:06:00,53.2,40.1,29.97,East,86,1.0,0.0,61,0.00,,,0.00,vanprod-2.5-rc3,2013-05-15 11:06:00,
2013-05-15 05:11:00,52.9,39.8,29.96,East,83,3.0,3.0,61,0.00,,,0.00,vanprod-2.5-rc3,2013-05-15 11:11:00,
2013-05-15 05:16:00,52.3,39.7,29.96,East,81,4.0,6.0,62,0.00,,,0.00,vanprod-2.5-rc3,2013-05-15 11:16:00,
2013-05-15 05:21:00,52.1,39.9,29.96,East,101,0.0,0.0,63,0.00,,,0.00,vanprod-2.5-rc3,2013-05-15 11:21:00,
2013-05-15 05:26:00,52.2,39.6,29.97,East,84,4.0,6.0,62,0.00,,,0.00,vanprod-2.5-rc3,2013-05-15 11:26:00,
2013-05-15 05:31:00,52.3,39.7,29.96,ESE,109,0.0,0.0,62,0.00,,,0.00,vanprod-2.5-rc3,2013-05-15 11:31:00,
2013-05-15 05:36:00,52.4,39.8,29.96,East,82,1.0,0.0,62,0.00,,,0.00,vanprod-2.5-rc3,2013-05-15 11:36:00,
2013-05-15 05:41:00,52.5,39.9,29.96,East,85,0.0,0.0,62,0.00,,,0.00,vanprod-2.5-rc3,2013-05-15 11:41:00,
2013-05-15 05:46:00,52.5,39.9,29.96,East,96,0.0,0.0,62,0.00,,,0.00,vanprod-2.5-rc3,2013-05-15 11:46:00,
2013-05-15 05:51:00,52.6,39.5,29.97,East,98,1.0,4.0,61,0.00,,,0.00,vanprod-2.5-rc3,2013-05-15 11:51:00,
2013-05-15 05:56:00,52.7,39.6,29.97,East,95,0.0,0.0,61,0.00,,,0.00,vanprod-2.5-rc3,2013-05-15 11:56:00,
2013-05-15 06:01:00,52.7,39.6,29.97,East,84,3.0,5.0,61,0.00,,,0.00,vanprod-2.5-rc3,2013-05-15 12:01:00,
2013-05-15 06:07:00,52.6,39.5,29.97,ENE,72,4.0,7.0,61,0.00,,,0.00,vanprod-2.5-rc3,2013-05-15 12:07:00,
2013-05-15 06:12:00,52.4,39.4,29.97,ENE,65,3.0,4.0,61,0.00,,,0.00,vanprod-2.5-rc3,2013-05-15 12:12:00,
2013-05-15 06:17:00,52.3,39.7,29.97,ENE,72,4.0,4.0,62,0.00,,,0.00,vanprod-2.5-rc3,2013-05-15 12:17:00,
2013-05-15 06:22:00,52.2,39.6,29.97,ENE,72,5.0,5.0,62,0.00,,,0.00,vanprod-2.5-rc3,2013-05-15 12:22:00,
2013-05-15 06:27:00,52.4,39.4,29.97,ENE,73,3.0,4.0,61,0.00,,,0.00,vanprod-2.5-rc3,2013-05-15 12:27:00,
2013-05-15 06:32:00,52.7,39.6,29.97,NE,56,4.0,4.0,61,0.00,,,0.00,vanprod-2.5-rc3,2013-05-15 12:32:00,
2013-05-15 06:37:00,53.0,39.5,29.97,ENE,58,5.0,6.0,60,0.00,,,0.00,vanprod-2.5-rc3,2013-05-15 12:37:00,
2013-05-15 06:42:00,53.2,39.7,29.97,ENE,58,5.0,7.0,60,0.00,,,0.00,vanprod-2.5-rc3,2013-05-15 12:42:00,
2013-05-15 06:47:00,53.3,40.2,29.97,ENE,61,1.0,4.0,61,0.00,,,0.00,vanprod-2.5-rc3,2013-05-15 12:47:00,
2013-05-15 06:52:00,53.1,40.4,29.97,ENE,72,2.0,6.0,62,0.00,,,0.00,vanprod-2.5-rc3,2013-05-15 12:52:00,
2013-05-15 06:57:00,53.0,40.8,29.99,ENE,72,3.0,4.0,63,0.00,,,0.00,vanprod-2.5-rc3,2013-05-15 12:57:00,
2013-05-15 07:02:00,53.0,41.2,29.98,ENE,71,3.0,3.0,64,0.00,,,0.00,vanprod-2.5-rc3,2013-05-15 13:02:00,
2013-05-15 07:07:00,53.0,41.2,29.98,ENE,66,4.0,6.0,64,0.00,,,0.00,vanprod-2.5-rc3,2013-05-15 13:07:00,
2013-05-15 07:12:00,53.1,41.3,29.98,ENE,68,2.0,5.0,64,0.00,,,0.00,vanprod-2.5-rc3,2013-05-15 13:12:00,
2013-05-15 07:17:00,53.3,41.4,29.98,ENE,69,4.0,9.0,64,0.00,,,0.00,vanprod-2.5-rc3,2013-05-15 13:17:00,
2013-05-15 07:22:00,53.5,41.2,29.99,ENE,63,3.0,6.0,63,0.00,,,0.00,vanprod-2.5-rc3,2013-05-15 13:22:00,
2013-05-15 07:27:00,53.7,41.4,29.99,ENE,74,6.0,6.0,63,0.00,,,0.00,vanprod-2.5-rc3,2013-05-15 13:27:00,
2013-05-15 07:32:00,53.9,41.6,29.99,ENE,68,5.0,9.0,63,0.00,,,0.00,vanprod-2.5-rc3,2013-05-15 13:32:00,
2013-05-15 07:37:00,54.4,41.7,29.99,ENE,65,4.0,5.0,62,0.00,,,0.00,vanprod-2.5-rc3,2013-05-15 13:37:00,
2013-05-15 07:42:00,55.1,42.3,29.99,ENE,73,2.0,4.0,62,0.00,,,0.00,vanprod-2.5-rc3,2013-05-15 13:42:00,
2013-05-15 07:47:00,55.8,42.6,29.98,ENE,65,1.0,3.0,61,0.00,,,0.00,vanprod-2.5-rc3,2013-05-15 13:47:00,
2013-05-15 07:52:00,56.6,42.5,29.98,ENE,76,2.0,4.0,59,0.00,,,0.00,vanprod-2.5-rc3,2013-05-15 13:52:00,
2013-05-15 07:58:00,57.3,43.1,29.98,East,79,1.0,4.0,59,0.00,,,0.00,vanprod-2.5-rc3,2013-05-15 13:58:00,
2013-05-15 08:03:00,58.2,43.5,29.99,ENE,78,2.0,2.0,58,0.00,,,0.00,vanprod-2.5-rc3,2013-05-15 14:03:00,
2013-05-15 08:08:00,59.0,43.8,29.98,ENE,76,2.0,4.0,57,0.00,,,0.00,vanprod-2.5-rc3,2013-05-15 14:08:00,
2013-05-15 08:13:00,59.2,42.6,29.98,East,79,3.0,4.0,54,0.00,,,0.00,vanprod-2.5-rc3,2013-05-15 14:13:00,
2013-05-15 08:18:00,59.7,41.6,29.98,ENE,69,8.0,8.0,51,0.00,,,0.00,vanprod-2.5-rc3,2013-05-15 14:18:00,
2013-05-15 08:23:00,60.0,41.8,29.98,ENE,73,5.0,6.0,51,0.00,,,0.00,vanprod-2.5-rc3,2013-05-15 14:23:00,
2013-05-15 08:28:00,60.2,41.5,29.98,ENE,72,7.0,7.0,50,0.00,,,0.00,vanprod-2.5-rc3,2013-05-15 14:28:00,
2013-05-15 08:33:00,60.4,41.7,29.98,ENE,73,5.0,6.0,50,0.00,,,0.00,vanprod-2.5-rc3,2013-05-15 14:33:00,
2013-05-15 08:38:00,60.4,41.7,29.98,ENE,73,6.0,9.0,50,0.00,,,0.00,vanprod-2.5-rc3,2013-05-15 14:38:00,
2013-05-15 08:43:00,60.6,42.4,29.97,East,80,6.0,10.0,51,0.00,,,0.00,vanprod-2.5-rc3,2013-05-15 14:43:00,
2013-05-15 08:48:00,61.0,41.2,29.99,ENE,71,6.0,7.0,48,0.00,,,0.00,vanprod-2.5-rc3,2013-05-15 14:48:00,
2013-05-15 08:53:00,61.4,41.6,29.97,ENE,73,5.0,9.0,48,0.00,,,0.00,vanprod-2.5-rc3,2013-05-15 14:53:00,
2013-05-15 08:59:00,61.9,42.0,29.97,ENE,77,3.0,5.0,48,0.00,,,0.00,vanprod-2.5-rc3,2013-05-15 14:59:00,
2013-05-15 09:04:00,62.2,41.2,29.98,ENE,68,5.0,7.0,46,0.00,,,0.00,vanprod-2.5-rc3,2013-05-15 15:04:00,
2013-05-15 09:09:00,62.7,42.7,29.97,ENE,76,5.0,10.0,48,0.00,,,0.00,vanprod-2.5-rc3,2013-05-15 15:09:00,
2013-05-15 09:14:00,63.4,42.3,29.97,ENE,68,3.0,6.0,46,0.00,,,0.00,vanprod-2.5-rc3,2013-05-15 15:14:00,
2013-05-15 09:19:00,64.1,42.3,29.97,ENE,72,7.0,9.0,45,0.00,,,0.00,vanprod-2.5-rc3,2013-05-15 15:19:00,
2013-05-15 09:24:00,65.0,42.6,29.98,East,86,7.0,7.0,44,0.00,,,0.00,vanprod-2.5-rc3,2013-05-15 15:24:00,
2013-05-15 09:29:00,65.9,42.8,29.98,East,80,2.0,4.0,43,0.00,,,0.00,vanprod-2.5-rc3,2013-05-15 15:29:00,
2013-05-15 09:34:00,66.2,43.1,29.98,ESE,106,4.0,4.0,43,0.00,,,0.00,vanprod-2.5-rc3,2013-05-15 15:34:00,
2013-05-15 09:40:00,66.5,43.3,29.97,East,81,2.0,5.0,43,0.00,,,0.00,vanprod-2.5-rc3,2013-05-15 15:40:00,
2013-05-15 09:45:00,67.5,43.6,29.97,East,99,2.0,3.0,42,0.00,,,0.00,vanprod-2.5-rc3,2013-05-15 15:45:00,
2013-05-15 09:50:00,68.6,42.7,29.97,ESE,123,3.0,11.0,39,0.00,,,0.00,vanprod-2.5-rc3,2013-05-15 15:50:00,
2013-05-15 09:55:00,69.6,42.9,29.98,East,81,3.0,3.0,38,0.00,,,0.00,vanprod-2.5-rc3,2013-05-15 15:55:00,
2013-05-15 10:00:00,70.2,42.7,29.98,SE,132,2.0,3.0,37,0.00,,,0.00,vanprod-2.5-rc3,2013-05-15 16:00:00,
2013-05-15 10:05:00,70.5,43.0,29.97,East,88,2.0,5.0,37,0.00,,,0.00,vanprod-2.5-rc3,2013-05-15 16:05:00,
2013-05-15 10:10:00,70.6,42.4,29.98,East,93,3.0,0.0,36,0.00,,,0.00,vanprod-2.5-rc3,2013-05-15 16:10:00,
2013-05-15 10:15:00,70.6,42.4,29.98,East,97,5.0,9.0,36,0.00,,,0.00,vanprod-2.5-rc3,2013-05-15 16:15:00,
2013-05-15 10:20:00,70.8,43.3,29.98,East,94,4.0,10.0,37,0.00,,,0.00,vanprod-2.5-rc3,2013-05-15 16:20:00,
2013-05-15 10:25:00,71.7,43.3,29.97,ENE,71,5.0,11.0,36,0.00,,,0.00,vanprod-2.5-rc3,2013-05-15 16:25:00,
2013-05-15 10:30:00,72.6,44.1,29.96,East,96,5.0,10.0,36,0.00,,,0.00,vanprod-2.5-rc3,2013-05-15 16:30:00,
2013-05-15 10:35:00,73.1,43.1,29.96,East,100,4.0,7.0,34,0.00,,,0.00,vanprod-2.5-rc3,2013-05-15 16:35:00,
2013-05-15 10:40:00,72.8,43.6,29.96,East,83,4.0,7.0,35,0.00,,,0.00,vanprod-2.5-rc3,2013-05-15 16:40:00,
2013-05-15 10:45:00,72.8,42.8,29.96,East,89,6.0,9.0,34,0.00,,,0.00,vanprod-2.5-rc3,2013-05-15 16:45:00,
2013-05-15 10:50:00,73.2,43.9,29.95,ENE,69,5.0,6.0,35,0.00,,,0.00,vanprod-2.5-rc3,2013-05-15 16:50:00,
2013-05-15 10:56:00,74.0,43.9,29.95,East,89,7.0,10.0,34,0.00,,,0.00,vanprod-2.5-rc3,2013-05-15 16:56:00,
2013-05-15 11:01:00,74.6,42.8,29.96,ENE,72,7.0,10.0,32,0.00,,,0.00,vanprod-2.5-rc3,2013-05-15 17:01:00,
2013-05-15 11:06:00,74.9,43.1,29.96,ENE,76,7.0,7.0,32,0.00,,,0.00,vanprod-2.5-rc3,2013-05-15 17:06:00,
2013-05-15 11:11:00,75.2,43.3,29.96,ENE,77,9.0,11.0,32,0.00,,,0.00,vanprod-2.5-rc3,2013-05-15 17:11:00,
2013-05-15 11:16:00,75.5,45.2,29.96,East,86,4.0,9.0,34,0.00,,,0.00,vanprod-2.5-rc3,2013-05-15 17:16:00,
2013-05-15 11:21:00,75.5,43.6,29.95,East,97,6.0,6.0,32,0.00,,,0.00,vanprod-2.5-rc3,2013-05-15 17:21:00,
2013-05-15 11:26:00,75.6,44.5,29.94,ENE,77,5.0,10.0,33,0.00,,,0.00,vanprod-2.5-rc3,2013-05-15 17:26:00,
2013-05-15 11:31:00,75.8,44.7,29.95,NE,55,4.0,5.0,33,0.00,,,0.00,vanprod-2.5-rc3,2013-05-15 17:31:00,
2013-05-15 11:36:00,76.3,45.1,29.93,East,80,4.0,11.0,33,0.00,,,0.00,vanprod-2.5-rc3,2013-05-15 17:36:00,
2013-05-15 11:41:00,76.5,41.9,29.93,NE,53,2.0,3.0,29,0.00,,,0.00,vanprod-2.5-rc3,2013-05-15 17:41:00,
2013-05-15 11:46:00,75.8,43.0,29.93,East,83,1.0,1.0,31,0.00,,,0.00,vanprod-2.5-rc3,2013-05-15 17:46:00,
2013-05-15 11:51:00,74.5,41.9,29.93,NE,55,1.0,4.0,31,0.00,,,0.00,vanprod-2.5-rc3,2013-05-15 17:51:00,
2013-05-15 11:56:00,73.5,43.4,29.93,ENE,69,0.0,0.0,34,0.00,,,0.00,vanprod-2.5-rc3,2013-05-15 17:56:00,
2013-05-15 12:01:00,72.9,42.9,29.92,ENE,77,0.0,0.0,34,0.00,,,0.00,vanprod-2.5-rc3,2013-05-15 18:01:00,
2013-05-15 12:06:00,72.6,43.4,29.91,ENE,78,0.0,0.0,35,0.00,,,0.00,vanprod-2.5-rc3,2013-05-15 18:06:00,
2013-05-15 12:11:00,72.6,44.9,29.93,East,80,0.0,0.0,37,0.00,,,0.00,vanprod-2.5-rc3,2013-05-15 18:11:00,
2013-05-15 12:16:00,72.7,45.0,29.93,East,90,0.0,0.0,37,0.00,,,0.00,vanprod-2.5-rc3,2013-05-15 18:16:00,
2013-05-15 12:21:00,72.8,45.0,29.93,East,90,0.0,0.0,37,0.00,,,0.00,vanprod-2.5-rc3,2013-05-15 18:21:00,
2013-05-15 12:26:00,73.1,44.6,29.91,East,94,0.0,0.0,36,0.00,,,0.00,vanprod-2.5-rc3,2013-05-15 18:26:00,
2013-05-15 12:31:00,73.8,47.3,29.91,East,87,2.0,4.0,39,0.00,,,0.00,vanprod-2.5-rc3,2013-05-15 18:31:00,
2013-05-15 12:36:00,75.2,47.2,29.91,ENE,77,1.0,4.0,37,0.00,,,0.00,vanprod-2.5-rc3,2013-05-15 18:36:00,
2013-05-15 12:41:00,76.9,44.8,29.89,ENE,60,1.0,4.0,32,0.00,,,0.00,vanprod-2.5-rc3,2013-05-15 18:41:00,
2013-05-15 12:46:00,77.7,45.5,29.91,East,79,2.0,6.0,32,0.00,,,0.00,vanprod-2.5-rc3,2013-05-15 18:46:00,
2013-05-15 12:51:00,77.5,45.3,29.90,ENE,68,3.0,5.0,32,0.00,,,0.00,vanprod-2.5-rc3,2013-05-15 18:51:00,
2013-05-15 12:56:00,76.7,44.7,29.91,ENE,71,0.0,2.0,32,0.00,,,0.00,vanprod-2.5-rc3,2013-05-15 18:56:00,
2013-05-15 13:02:00,75.9,46.3,29.91,ENE,76,4.0,5.0,35,0.00,,,0.00,vanprod-2.5-rc3,2013-05-15 19:02:00,
2013-05-15 13:07:00,75.3,47.3,29.88,East,87,2.0,0.0,37,0.00,,,0.00,vanprod-2.5-rc3,2013-05-15 19:07:00,
2013-05-15 13:12:00,74.9,47.6,29.90,East,81,2.0,4.0,38,0.00,,,0.00,vanprod-2.5-rc3,2013-05-15 19:12:00,
2013-05-15 13:17:00,74.9,47.6,29.90,East,99,0.0,0.0,38,0.00,,,0.00,vanprod-2.5-rc3,2013-05-15 19:17:00,
2013-05-15 13:22:00,75.0,48.4,29.90,ENE,66,2.0,5.0,39,0.00,,,0.00,vanprod-2.5-rc3,2013-05-15 19:22:00,
2013-05-15 13:27:00,75.0,46.3,29.88,NE,45,4.0,6.0,36,0.00,,,0.00,vanprod-2.5-rc3,2013-05-15 19:27:00,
2013-05-15 13:33:00,74.7,46.7,29.87,ENE,67,2.0,6.0,37,0.00,,,0.00,vanprod-2.5-rc3,2013-05-15 19:33:00,
2013-05-15 13:38:00,74.8,48.9,29.87,ENE,71,2.0,7.0,40,0.00,,,0.00,vanprod-2.5-rc3,2013-05-15 19:38:00,
2013-05-15 13:43:00,74.8,45.3,29.87,East,96,1.0,4.0,35,0.00,,,0.00,vanprod-2.5-rc3,2013-05-15 19:43:00,
2013-05-15 13:48:00,74.8,41.3,29.87,SSE,168,4.0,7.0,30,0.00,,,0.00,vanprod-2.5-rc3,2013-05-15 19:48:00,
2013-05-15 13:53:00,75.0,40.6,29.87,South,178,2.0,3.0,29,0.00,,,0.00,vanprod-2.5-rc3,2013-05-15 19:53:00,
2013-05-15 13:58:00,74.9,39.6,29.87,South,184,9.0,10.0,28,0.00,,,0.00,vanprod-2.5-rc3,2013-05-15 19:58:00,
2013-05-15 14:03:00,74.8,40.4,29.86,South,179,3.0,3.0,29,0.00,,,0.00,vanprod-2.5-rc3,2013-05-15 20:03:00,
2013-05-15 14:08:00,74.5,41.9,29.86,South,184,8.0,10.0,31,0.00,,,0.00,vanprod-2.5-rc3,2013-05-15 20:08:00,
2013-05-15 14:13:00,74.1,42.4,29.86,South,173,4.0,5.0,32,0.00,,,0.00,vanprod-2.5-rc3,2013-05-15 20:13:00,
2013-05-15 14:18:00,73.9,43.0,29.87,SSW,192,1.0,3.0,33,0.00,,,0.00,vanprod-2.5-rc3,2013-05-15 20:18:00,
2013-05-15 14:23:00,74.0,44.6,29.88,South,188,0.0,0.0,35,0.00,,,0.00,vanprod-2.5-rc3,2013-05-15 20:23:00,
2013-05-15 14:28:00,74.6,46.6,29.88,SSE,165,0.0,0.0,37,0.00,,,0.00,vanprod-2.5-rc3,2013-05-15 20:28:00,
2013-05-15 14:33:00,75.3,45.8,29.88,NE,38,0.0,0.0,35,0.00,,,0.00,vanprod-2.5-rc3,2013-05-15 20:33:00,
2013-05-15 14:38:00,75.6,44.5,29.87,North,11,0.0,1.0,33,0.00,,,0.00,vanprod-2.5-rc3,2013-05-15 20:38:00,
2013-05-15 14:43:00,76.0,45.6,29.87,NE,53,4.0,12.0,34,0.00,,,0.00,vanprod-2.5-rc3,2013-05-15 20:43:00,
2013-05-15 14:49:00,76.8,44.7,29.86,ENE,57,8.0,11.0,32,0.00,,,0.00,vanprod-2.5-rc3,2013-05-15 20:49:00,
2013-05-15 14:54:00,77.8,46.4,29.85,NE,54,5.0,9.0,33,0.00,,,0.00,vanprod-2.5-rc3,2013-05-15 20:54:00,
2013-05-15 14:59:00,78.7,47.2,29.85,East,83,6.0,12.0,33,0.00,,,0.00,vanprod-2.5-rc3,2013-05-15 20:59:00,
2013-05-15 15:04:00,79.3,46.1,29.86,East,79,7.0,9.0,31,0.00,,,0.00,vanprod-2.5-rc3,2013-05-15 21:04:00,
2013-05-15 15:09:00,79.4,46.2,29.86,ENE,74,6.0,9.0,31,0.00,,,0.00,vanprod-2.5-rc3,2013-05-15 21:09:00,
2013-05-15 15:14:00,78.4,45.3,29.85,ENE,62,6.0,6.0,31,0.00,,,0.00,vanprod-2.5-rc3,2013-05-15 21:14:00,
2013-05-15 15:20:00,77.5,44.5,29.86,NE,55,8.0,11.0,31,0.00,,,0.00,vanprod-2.5-rc3,2013-05-15 21:20:00,
2013-05-15 15:25:00,76.5,43.6,29.85,NNE,12,10.0,10.0,31,0.00,,,0.00,vanprod-2.5-rc3,2013-05-15 21:25:00,
2013-05-15 15:30:00,75.6,42.9,29.84,NNE,27,8.0,13.0,31,0.00,,,0.00,vanprod-2.5-rc3,2013-05-15 21:30:00,
2013-05-15 15:35:00,75.3,42.6,29.86,NNW,337,10.0,17.0,31,0.00,,,0.00,vanprod-2.5-rc3,2013-05-15 21:35:00,
2013-05-15 15:40:00,74.8,43.0,29.86,North,358,11.0,11.0,32,0.00,,,0.00,vanprod-2.5-rc3,2013-05-15 21:40:00,
2013-05-15 15:45:00,74.2,41.7,29.86,North,10,13.0,16.0,31,0.00,,,0.00,vanprod-2.5-rc3,2013-05-15 21:45:00,
2013-05-15 15:50:00,73.8,42.1,29.87,North,2,7.0,15.0,32,0.00,,,0.00,vanprod-2.5-rc3,2013-05-15 21:50:00,
2013-05-15 15:56:00,73.7,42.0,29.87,North,359,6.0,10.0,32,0.00,,,0.00,vanprod-2.5-rc3,2013-05-15 21:56:00,
2013-05-15 16:01:00,74.3,42.6,29.86,NNW,337,6.0,6.0,32,0.00,,,0.00,vanprod-2.5-rc3,2013-05-15 22:01:00,
2013-05-15 16:06:00,75.0,44.0,29.87,WNW,294,2.0,2.0,33,0.00,,,0.00,vanprod-2.5-rc3,2013-05-15 22:06:00,
2013-05-15 16:11:00,75.3,43.4,29.87,SW,234,1.0,4.0,32,0.00,,,0.00,vanprod-2.5-rc3,2013-05-15 22:11:00,
2013-05-15 16:16:00,76.0,44.0,29.87,SSW,210,4.0,4.0,32,0.00,,,0.00,vanprod-2.5-rc3,2013-05-15 22:16:00,
2013-05-15 16:21:00,76.6,43.7,29.86,SW,229,2.0,2.0,31,0.00,,,0.00,vanprod-2.5-rc3,2013-05-15 22:21:00,
2013-05-15 16:26:00,76.7,43.8,29.86,West,265,0.0,0.0,31,0.00,,,0.00,vanprod-2.5-rc3,2013-05-15 22:26:00,
2013-05-15 16:31:00,77.5,43.7,29.85,WSW,248,1.0,5.0,30,0.00,,,0.00,vanprod-2.5-rc3,2013-05-15 22:31:00,
2013-05-15 16:36:00,77.6,43.7,29.86,SW,227,0.0,0.0,30,0.00,,,0.00,vanprod-2.5-rc3,2013-05-15 22:36:00,
2013-05-15 16:41:00,77.6,42.9,29.86,ESE,117,2.0,6.0,29,0.00,,,0.00,vanprod-2.5-rc3,2013-05-15 22:41:00,
2013-05-15 16:46:00,78.1,44.2,29.87,WNW,285,4.0,6.0,30,0.00,,,0.00,vanprod-2.5-rc3,2013-05-15 22:46:00,
2013-05-15 16:51:00,77.2,43.4,29.85,NNE,12,2.0,3.0,30,0.00,,,0.00,vanprod-2.5-rc3,2013-05-15 22:51:00,
2013-05-15 16:57:00,77.2,42.5,29.85,NE,40,7.0,16.0,29,0.00,,,0.00,vanprod-2.5-rc3,2013-05-15 22:57:00,
2013-05-15 17:02:00,76.8,43.1,29.85,NE,52,10.0,13.0,30,0.00,,,0.00,vanprod-2.5-rc3,2013-05-15 23:02:00,
2013-05-15 17:07:00,75.7,43.0,29.86,NE,50,12.0,16.0,31,0.00,,,0.00,vanprod-2.5-rc3,2013-05-15 23:07:00,
2013-05-15 17:12:00,75.6,42.9,29.85,ENE,64,14.0,14.0,31,0.00,,,0.00,vanprod-2.5-rc3,2013-05-15 23:12:00,
2013-05-15 17:17:00,75.8,43.0,29.86,NE,47,9.0,12.0,31,0.00,,,0.00,vanprod-2.5-rc3,2013-05-15 23:17:00,
2013-05-15 17:22:00,75.6,42.9,29.86,ENE,69,10.0,14.0,31,0.00,,,0.00,vanprod-2.5-rc3,2013-05-15 23:22:00,
2013-05-15 17:27:00,75.1,42.4,29.86,NE,45,13.0,13.0,31,0.00,,,0.00,vanprod-2.5-rc3,2013-05-15 23:27:00,
2013-05-15 17:32:00,74.7,42.9,29.86,NE,55,8.0,9.0,32,0.00,,,0.00,vanprod-2.5-rc3,2013-05-15 23:32:00,
2013-05-15 17:37:00,75.4,43.5,29.86,ENE,58,11.0,11.0,32,0.00,,,0.00,vanprod-2.5-rc3,2013-05-15 23:37:00,
2013-05-15 17:42:00,75.7,43.8,29.85,NE,34,9.0,10.0,32,0.00,,,0.00,vanprod-2.5-rc3,2013-05-15 23:42:00,
2013-05-15 17:47:00,76.1,43.3,29.85,ENE,58,7.0,10.0,31,0.00,,,0.00,vanprod-2.5-rc3,2013-05-15 23:47:00,
2013-05-15 17:52:00,75.9,43.1,29.85,ENE,63,8.0,13.0,31,0.00,,,0.00,vanprod-2.5-rc3,2013-05-15 23:52:00,
2013-05-15 17:58:00,76.8,43.1,29.84,ENE,67,8.0,11.0,30,0.00,,,0.00,vanprod-2.5-rc3,2013-05-15 23:58:00,
2013-05-15 18:03:00,77.4,42.7,29.84,NE,50,6.0,10.0,29,0.00,,,0.00,vanprod-2.5-rc3,2013-05-16 00:03:00,
2013-05-15 18:08:00,77.5,43.7,29.83,East,84,7.0,8.0,30,0.00,,,0.00,vanprod-2.5-rc3,2013-05-16 00:08:00,
2013-05-15 18:13:00,77.6,42.9,29.83,ENE,75,6.0,6.0,29,0.00,,,0.00,vanprod-2.5-rc3,2013-05-16 00:13:00,
2013-05-15 18:18:00,77.3,43.5,29.83,East,87,6.0,7.0,30,0.00,,,0.00,vanprod-2.5-rc3,2013-05-16 00:18:00,
2013-05-15 18:23:00,76.8,43.1,29.83,East,85,3.0,4.0,30,0.00,,,0.00,vanprod-2.5-rc3,2013-05-16 00:23:00,
2013-05-15 18:28:00,76.2,42.5,29.84,East,83,4.0,4.0,30,0.00,,,0.00,vanprod-2.5-rc3,2013-05-16 00:28:00,
2013-05-15 18:33:00,75.4,41.8,29.84,East,83,2.0,5.0,30,0.00,,,0.00,vanprod-2.5-rc3,2013-05-16 00:33:00,
2013-05-15 18:38:00,74.6,42.0,29.84,East,89,1.0,3.0,31,0.00,,,0.00,vanprod-2.5-rc3,2013-05-16 00:38:00,
2013-05-15 18:43:00,73.9,41.4,29.85,ESE,103,0.0,0.0,31,0.00,,,0.00,vanprod-2.5-rc3,2013-05-16 00:43:00,
2013-05-15 18:49:00,73.5,41.9,29.83,ESE,111,0.0,0.0,32,0.00,,,0.00,vanprod-2.5-rc3,2013-05-16 00:49:00,
2013-05-15 18:54:00,73.0,41.4,29.86,South,173,0.0,0.0,32,0.00,,,0.00,vanprod-2.5-rc3,2013-05-16 00:54:00,
2013-05-15 18:59:00,72.7,45.0,29.86,SSW,193,0.0,0.0,37,0.00,,,0.00,vanprod-2.5-rc3,2013-05-16 00:59:00,
2013-05-15 19:04:00,72.1,45.1,29.87,East,99,0.0,0.0,38,0.00,,,0.00,vanprod-2.5-rc3,2013-05-16 01:04:00,
2013-05-15 19:09:00,70.4,42.2,29.85,NE,56,12.0,16.0,36,0.00,,,0.00,vanprod-2.5-rc3,2013-05-16 01:09:00,
2013-05-15 19:14:00,69.2,41.1,29.86,NE,55,3.0,4.0,36,0.00,,,0.00,vanprod-2.5-rc3,2013-05-16 01:14:00,
2013-05-15 19:19:00,68.8,42.2,29.86,SE,131,1.0,9.0,38,0.00,,,0.00,vanprod-2.5-rc3,2013-05-16 01:19:00,
2013-05-15 19:24:00,68.6,45.2,29.86,SE,146,15.0,19.0,43,0.00,,,0.00,vanprod-2.5-rc3,2013-05-16 01:24:00,
2013-05-15 19:29:00,67.6,45.5,29.87,SE,146,16.0,23.0,45,0.00,,,0.00,vanprod-2.5-rc3,2013-05-16 01:29:00,
2013-05-15 19:35:00,65.6,43.1,29.86,SE,142,20.0,30.0,44,0.00,,,0.00,vanprod-2.5-rc3,2013-05-16 01:35:00,
2013-05-15 19:40:00,64.2,41.3,29.84,SE,133,12.0,16.0,43,0.00,,,0.00,vanprod-2.5-rc3,2013-05-16 01:40:00,
2013-05-15 19:45:00,64.2,42.4,29.86,SE,128,1.0,0.0,45,0.00,,,0.00,vanprod-2.5-rc3,2013-05-16 01:45:00,
2013-05-15 19:50:00,64.4,40.2,29.85,South,191,0.0,0.0,41,0.00,,,0.00,vanprod-2.5-rc3,2013-05-16 01:50:00,
2013-05-15 19:55:00,64.3,41.9,29.88,NW,320,0.0,0.0,44,0.00,,,0.00,vanprod-2.5-rc3,2013-05-16 01:55:00,
2013-05-15 20:00:00,63.6,42.5,29.86,NNE,21,0.0,0.0,46,0.00,,,0.00,vanprod-2.5-rc3,2013-05-16 02:00:00,
2013-05-15 20:05:00,63.1,41.4,29.87,North,2,0.0,0.0,45,0.00,,,0.00,vanprod-2.5-rc3,2013-05-16 02:05:00,
2013-05-15 20:10:00,62.8,42.3,29.87,North,0,0.0,0.0,47,0.00,,,0.00,vanprod-2.5-rc3,2013-05-16 02:10:00,
2013-05-15 20:15:00,62.6,42.7,29.87,North,6,0.0,0.0,48,0.00,,,0.00,vanprod-2.5-rc3,2013-05-16 02:15:00,
2013-05-15 20:21:00,62.3,42.9,29.87,NE,41,0.0,0.0,49,0.00,,,0.00,vanprod-2.5-rc3,2013-05-16 02:21:00,
2013-05-15 20:26:00,61.9,42.5,29.87,NE,53,6.0,8.0,49,0.00,,,0.00,vanprod-2.5-rc3,2013-05-16 02:26:00,
2013-05-15 20:31:00,61.0,45.2,29.89,NE,46,11.0,11.0,56,0.00,,,0.00,vanprod-2.5-rc3,2013-05-16 02:31:00,
2013-05-15 20:36:00,59.6,45.7,29.89,NNE,32,6.0,13.0,60,0.00,,,0.00,vanprod-2.5-rc3,2013-05-16 02:36:00,
2013-05-15 20:41:00,58.7,44.9,29.88,NE,34,6.0,7.0,60,0.00,,,0.00,vanprod-2.5-rc3,2013-05-16 02:41:00,
2013-05-15 20:46:00,58.6,43.4,29.90,ENE,75,3.0,5.0,57,0.00,,,0.00,vanprod-2.5-rc3,2013-05-16 02:46:00,
2013-05-15 20:51:00,59.0,42.9,29.91,ENE,62,4.0,4.0,55,0.00,,,0.00,vanprod-2.5-rc3,2013-05-16 02:51:00,
2013-05-15 20:56:00,59.0,44.7,29.91,NE,36,7.0,7.0,59,0.00,,,0.00,vanprod-2.5-rc3,2013-05-16 02:56:00,
2013-05-15 21:01:00,58.6,45.2,29.92,NE,37,7.0,7.0,61,0.00,,,0.00,vanprod-2.5-rc3,2013-05-16 03:01:00,
2013-05-15 21:06:00,58.1,44.3,29.92,ENE,63,10.0,19.0,60,0.00,,,0.00,vanprod-2.5-rc3,2013-05-16 03:06:00,
2013-05-15 21:11:00,57.6,45.1,29.92,NE,47,13.0,16.0,63,0.00,,,0.00,vanprod-2.5-rc3,2013-05-16 03:11:00,
2013-05-15 21:16:00,56.9,44.9,29.94,ENE,59,8.0,14.0,64,0.00,,,0.00,vanprod-2.5-rc3,2013-05-16 03:16:00,
2013-05-15 21:21:00,56.5,44.9,29.94,ENE,59,6.0,13.0,65,0.00,,,0.00,vanprod-2.5-rc3,2013-05-16 03:21:00,
2013-05-15 21:26:00,56.0,44.8,29.95,NE,46,5.0,9.0,66,0.00,,,0.00,vanprod-2.5-rc3,2013-05-16 03:26:00,
2013-05-15 21:31:00,55.8,44.6,29.95,East,86,2.0,4.0,66,0.00,,,0.00,vanprod-2.5-rc3,2013-05-16 03:31:00,
2013-05-15 21:37:00,55.7,44.5,29.95,East,79,0.0,3.0,66,0.00,,,0.00,vanprod-2.5-rc3,2013-05-16 03:37:00,
2013-05-15 21:42:00,55.4,44.2,29.95,ESE,104,0.0,0.0,66,0.00,,,0.00,vanprod-2.5-rc3,2013-05-16 03:42:00,
2013-05-15 21:47:00,55.3,44.1,29.95,ESE,121,0.0,0.0,66,0.00,,,0.00,vanprod-2.5-rc3,2013-05-16 03:47:00,
2013-05-15 21:52:00,55.4,43.8,29.94,ESE,119,2.0,3.0,65,0.00,,,0.00,vanprod-2.5-rc3,2013-05-16 03:52:00,
2013-05-15 21:57:00,55.7,43.7,29.96,SE,145,0.0,0.0,64,0.00,,,0.00,vanprod-2.5-rc3,2013-05-16 03:57:00,
2013-05-15 22:01:00,56.0,44.0,29.94,SE,126,0.0,0.0,64,0.00,,,0.00,vanprod-2.5-rc3,2013-05-16 04:01:00,
2013-05-15 22:08:00,56.2,43.8,29.94,ESE,103,0.0,0.0,63,0.00,,,0.00,vanprod-2.5-rc3,2013-05-16 04:08:00,
2013-05-15 22:12:00,56.2,43.8,29.95,NNW,347,3.0,6.0,63,0.00,,,0.00,vanprod-2.5-rc3,2013-05-16 04:12:00,
2013-05-15 22:17:00,56.2,44.2,29.95,NNW,348,0.0,0.0,64,0.00,,,0.00,vanprod-2.5-rc3,2013-05-16 04:17:00,
2013-05-15 22:22:00,56.2,44.6,29.95,NNE,18,0.0,0.0,65,0.00,,,0.00,vanprod-2.5-rc3,2013-05-16 04:22:00,
2013-05-15 22:27:00,56.0,44.0,29.94,East,82,2.0,6.0,64,0.00,,,0.00,vanprod-2.5-rc3,2013-05-16 04:27:00,
2013-05-15 22:32:00,56.2,42.5,29.95,SSE,165,0.0,0.0,60,0.00,,,0.00,vanprod-2.5-rc3,2013-05-16 04:32:00,
2013-05-15 22:37:00,56.8,44.4,29.97,SSE,168,0.0,0.0,63,0.00,,,0.00,vanprod-2.5-rc3,2013-05-16 04:37:00,
2013-05-15 22:42:00,56.3,44.7,29.96,NNE,21,5.0,10.0,65,0.00,,,0.00,vanprod-2.5-rc3,2013-05-16 04:42:00,
2013-05-15 22:47:00,55.8,44.6,29.98,NNE,17,6.0,9.0,66,0.00,,,0.00,vanprod-2.5-rc3,2013-05-16 04:47:00,
2013-05-15 22:52:00,55.7,44.5,29.96,NNE,19,7.0,10.0,66,0.00,,,0.00,vanprod-2.5-rc3,2013-05-16 04:52:00,
2013-05-15 22:57:00,55.9,45.5,29.96,NE,37,10.0,14.0,68,0.00,,,0.00,vanprod-2.5-rc3,2013-05-16 04:57:00,
2013-05-15 23:02:00,55.6,47.5,29.96,ESE,103,1.0,1.0,74,0.00,,,0.00,vanprod-2.5-rc3,2013-05-16 05:02:00,
2013-05-15 23:07:00,55.1,47.7,29.96,ESE,121,7.0,10.0,76,0.01,,,0.01,vanprod-2.5-rc3,2013-05-16 05:07:00,
2013-05-15 23:12:00,54.5,47.4,29.94,East,81,9.0,13.0,77,0.01,,,0.01,vanprod-2.5-rc3,2013-05-16 05:12:00,
2013-05-15 23:17:00,53.5,46.1,29.93,NE,53,16.0,21.0,76,0.01,,,0.01,vanprod-2.5-rc3,2013-05-16 05:17:00,
2013-05-15 23:22:00,53.2,46.2,29.92,NE,35,19.0,26.0,77,0.01,,,0.01,vanprod-2.5-rc3,2013-05-16 05:22:00,
2013-05-15 23:27:00,52.8,46.1,29.93,NE,43,9.0,13.0,78,0.01,,,0.01,vanprod-2.5-rc3,2013-05-16 05:27:00,
2013-05-15 23:32:00,52.8,46.1,29.94,ENE,62,4.0,10.0,78,0.01,,,0.01,vanprod-2.5-rc3,2013-05-16 05:32:00,
2013-05-15 23:37:00,52.7,46.4,29.95,ENE,57,1.0,6.0,79,0.01,,,0.01,vanprod-2.5-rc3,2013-05-16 05:37:00,
2013-05-15 23:42:00,52.6,46.3,29.94,East,93,3.0,6.0,79,0.01,,,0.01,vanprod-2.5-rc3,2013-05-16 05:42:00,
2013-05-15 23:47:00,52.6,45.9,29.94,ENE,61,5.0,10.0,78,0.01,,,0.01,vanprod-2.5-rc3,2013-05-16 05:47:00,
2013-05-15 23:52:00,52.6,46.3,29.93,East,81,4.0,7.0,79,0.01,,,0.01,vanprod-2.5-rc3,2013-05-16 05:52:00,
2013-05-15 23:57:00,52.6,45.9,29.93,ENE,67,6.0,9.0,78,0.01,,,0.01,vanprod-2.5-rc3,2013-05-16 05:57:00,